Time;durP1;ratioP1;P1;durP2;ratioP2;P2;SDS_P1;SDS_P2;PMS_P1;PMS_P2;Temp;Humidity;BMP_temperature;BMP_pressure;BME280_temperature;BME280_humidity;BME280_pressure;Samples;Min_cycle;Max_cycle;Signal;HPM_P1;HPM_P2
2021/01/16 00:00:27;;;;;;;7.47;3.97;;;;;;;-3.44;72.84;101897.22;5073558;28;20040;-86
2021/01/16 00:02:53;;;;;;;7.20;3.60;;;;;;;-3.45;71.76;101891.25;5074394;28;20399;-85
2021/01/16 00:05:20;;;;;;;9.02;3.97;;;;;;;-3.49;72.82;101890.19;5074617;28;20137;-85
2021/01/16 00:07:47;;;;;;;8.68;4.03;;;;;;;-3.47;72.23;101892.84;5073761;28;20027;-85
2021/01/16 00:10:16;;;;;;;7.72;3.88;;;;;;;-3.49;71.33;101889.31;5056843;28;20025;-85
2021/01/16 00:12:49;;;;;;;8.57;4.07;;;;;;;-3.52;69.73;101884.06;5074360;28;20119;-84
2021/01/16 00:15:14;;;;;;;8.10;3.95;;;;;;;-3.52;72.19;101879.88;5075551;28;20024;-85
2021/01/16 00:17:39;;;;;;;9.75;4.03;;;;;;;-3.51;72.00;101875.66;5075341;28;20448;-83
2021/01/16 00:20:05;;;;;;;8.52;3.75;;;;;;;-3.50;71.01;101875.78;5074009;28;20024;-86
2021/01/16 00:22:31;;;;;;;8.13;4.07;;;;;;;-3.52;70.99;101873.94;5075491;28;20492;-85
2021/01/16 00:24:58;;;;;;;8.75;4.18;;;;;;;-3.50;71.75;101869.84;5074994;28;20138;-85
2021/01/16 00:27:23;;;;;;;8.10;3.90;;;;;;;-3.48;72.88;101869.16;5074385;28;20059;-86
2021/01/16 00:29:49;;;;;;;7.32;3.65;;;;;;;-3.45;72.05;101872.63;5075743;28;20444;-85
2021/01/16 00:32:14;;;;;;;8.45;4.10;;;;;;;-3.49;72.24;101874.09;5075621;28;20028;-85
2021/01/16 00:34:39;;;;;;;8.57;3.83;;;;;;;-3.48;72.74;101866.59;5075552;28;20077;-85
2021/01/16 00:37:05;;;;;;;10.48;4.18;;;;;;;-3.51;73.49;101873.13;5074236;28;20031;-85
2021/01/16 00:39:30;;;;;;;7.68;3.88;;;;;;;-3.51;72.67;101873.13;5074946;28;20028;-85
2021/01/16 00:41:55;;;;;;;9.27;4.25;;;;;;;-3.53;72.98;101873.06;5074313;28;20170;-85
2021/01/16 00:44:20;;;;;;;8.93;4.18;;;;;;;-3.53;72.98;101864.56;5073831;28;20025;-85
2021/01/16 00:46:46;;;;;;;9.07;4.03;;;;;;;-3.51;73.69;101873.13;5074952;28;20455;-85
2021/01/16 00:49:11;;;;;;;8.18;3.70;;;;;;;-3.52;72.93;101879.00;5074309;28;20025;-85
2021/01/16 00:51:36;;;;;;;8.82;4.65;;;;;;;-3.52;73.69;101863.78;5076178;28;20035;-85
2021/01/16 00:54:01;;;;;;;7.43;3.47;;;;;;;-3.51;71.90;101870.59;5075196;28;20025;-85
2021/01/16 00:56:28;;;;;;;6.57;3.50;;;;;;;-3.56;73.37;101867.81;5076147;28;20020;-85
2021/01/16 00:58:53;;;;;;;7.85;3.85;;;;;;;-3.54;72.98;101865.34;5074159;28;20078;-85
2021/01/16 01:01:18;;;;;;;6.55;3.60;;;;;;;-3.56;73.67;101870.34;5074154;28;20036;-85
2021/01/16 01:03:43;;;;;;;8.10;3.83;;;;;;;-3.53;72.96;101870.53;5075610;28;20027;-85
2021/01/16 01:06:09;;;;;;;8.10;4.38;;;;;;;-3.57;74.69;101865.16;5076160;28;20048;-85
2021/01/16 01:08:34;;;;;;;10.68;4.13;;;;;;;-3.54;74.06;101863.72;5074316;28;20028;-85
2021/01/16 01:10:59;;;;;;;7.32;3.97;;;;;;;-3.58;73.96;101861.75;5079645;28;20025;-85
2021/01/16 01:13:25;;;;;;;7.68;3.70;;;;;;;-3.57;74.92;101865.16;5085324;28;20051;-84
2021/01/16 01:15:50;;;;;;;7.18;3.47;;;;;;;-3.55;73.66;101869.53;5081624;28;20500;-85
2021/01/16 01:18:15;;;;;;;8.57;4.40;;;;;;;-3.57;74.36;101855.91;5077300;28;20539;-85
2021/01/16 01:20:40;;;;;;;8.77;4.07;;;;;;;-3.55;73.74;101861.94;5076769;28;20024;-85
2021/01/16 01:23:06;;;;;;;8.65;4.22;;;;;;;-3.54;73.65;101856.09;5076165;28;20027;-85
2021/01/16 01:25:32;;;;;;;8.13;4.20;;;;;;;-3.56;72.89;101859.31;5076774;28;20033;-83
2021/01/16 01:28:00;;;;;;;9.95;4.20;;;;;;;-3.56;73.16;101861.84;5075429;28;20135;-83
2021/01/16 01:30:28;;;;;;;7.28;3.67;;;;;;;-3.59;72.49;101849.00;5076136;28;20031;-84
2021/01/16 01:32:53;;;;;;;10.77;4.07;;;;;;;-3.61;73.33;101853.09;5076693;28;20044;-83
2021/01/16 01:35:20;;;;;;;10.10;4.72;;;;;;;-3.59;73.46;101851.53;5076570;28;20028;-83
2021/01/16 01:37:47;;;;;;;9.85;4.65;;;;;;;-3.59;75.51;101862.53;5074493;28;20050;-83
2021/01/16 01:40:15;;;;;;;11.07;4.25;;;;;;;-3.57;74.58;101868.59;5083471;28;20384;-83
2021/01/16 01:42:40;;;;;;;8.77;4.45;;;;;;;-3.55;73.48;101864.47;5093616;28;20020;-84
2021/01/16 01:45:08;;;;;;;7.03;4.00;;;;;;;-3.58;73.71;101868.50;5093855;28;20024;-84
2021/01/16 01:47:41;;;;;;;7.75;4.07;;;;;;;-3.60;73.04;101857.38;5084837;28;20031;-84
2021/01/16 01:50:09;;;;;;;8.43;4.07;;;;;;;-3.63;72.85;101863.16;5075051;28;20437;-84
2021/01/16 01:52:34;;;;;;;9.05;4.68;;;;;;;-3.61;74.42;101864.09;5076779;28;20024;-84
2021/01/16 01:55:01;;;;;;;9.82;4.68;;;;;;;-3.61;74.17;101864.09;5075843;28;20036;-84
2021/01/16 01:57:28;;;;;;;8.93;4.20;;;;;;;-3.64;73.36;101858.84;5076585;28;20020;-84
2021/01/16 01:59:54;;;;;;;9.30;5.00;;;;;;;-3.66;73.44;101865.50;5078737;28;20031;-85
2021/01/16 02:02:20;;;;;;;8.23;4.65;;;;;;;-3.64;73.85;101863.03;5079359;28;20024;-84
2021/01/16 02:04:46;;;;;;;11.00;5.15;;;;;;;-3.62;74.83;101856.41;5078159;28;20020;-84
2021/01/16 02:07:26;;;;;;;8.98;4.95;;;;;;;-3.64;74.08;101853.78;5077315;28;20488;-84
2021/01/16 02:09:53;;;;;;;8.57;4.70;;;;;;;-3.64;73.46;101848.72;5078370;28;20024;-84
2021/01/16 02:12:19;;;;;;;8.82;4.35;;;;;;;-3.66;73.58;101850.28;5078082;28;20025;-84
2021/01/16 02:15:14;;;;;;;8.82;4.80;;;;;;;-3.68;73.90;101849.31;5079341;28;20028;-84
2021/01/16 02:17:42;;;;;;;9.77;4.72;;;;;;;-3.63;74.15;101854.66;5078998;28;20048;-84
2021/01/16 02:20:12;;;;;;;8.60;4.43;;;;;;;-3.66;75.09;101850.28;5077811;28;20024;-84
2021/01/16 02:23:09;;;;;;;10.00;5.45;;;;;;;-3.65;75.43;101853.69;5078103;28;20028;-84
2021/01/16 02:25:41;;;;;;;10.70;4.82;;;;;;;-3.65;74.23;101848.63;5079483;28;20024;-84
2021/01/16 02:28:08;;;;;;;9.98;4.82;;;;;;;-3.66;73.28;101854.47;5079449;28;20025;-84
2021/01/16 02:30:35;;;;;;;9.77;4.60;;;;;;;-3.69;74.15;101850.13;5078117;28;20024;-84
2021/01/16 02:33:08;;;;;;;10.90;4.90;;;;;;;-3.69;73.88;101850.13;5078522;28;20096;-83
2021/01/16 02:35:37;;;;;;;8.48;4.40;;;;;;;-3.71;73.67;101841.53;5079342;28;20095;-84
2021/01/16 02:38:27;;;;;;;9.15;4.43;;;;;;;-3.70;73.29;101843.28;5076843;28;20119;-84
2021/01/16 02:41:02;;;;;;;10.40;5.15;;;;;;;-3.70;74.00;101834.00;5077966;28;20063;-84
2021/01/16 02:43:33;;;;;;;;;;;;;;;-3.71;73.93;101826.31;5077768;28;20088;-84
2021/01/16 02:46:19;;;;;;;8.02;4.50;;;;;;;-3.70;74.13;101820.44;5078803;28;19952;-84
2021/01/16 02:48:58;;;;;;;8.85;4.55;;;;;;;-3.71;74.00;101821.25;5079572;28;20097;-84
2021/01/16 02:51:37;;;;;;;9.23;4.28;;;;;;;-3.73;73.98;101823.69;5077631;28;20112;-84
2021/01/16 02:54:03;;;;;;;10.07;4.47;;;;;;;-3.76;74.29;101820.97;5077896;28;20077;-84
2021/01/16 02:56:31;;;;;;;9.60;4.78;;;;;;;-3.77;74.28;101826.81;5080062;28;20024;-84
2021/01/16 02:58:56;;;;;;;8.18;3.83;;;;;;;-3.77;73.42;101818.34;5077957;28;20452;-84
2021/01/16 03:01:22;;;;;;;8.45;4.25;;;;;;;-3.77;73.70;101824.28;5079698;28;20028;-84
2021/01/16 03:03:47;;;;;;;9.35;4.72;;;;;;;-3.77;74.32;101823.41;5077901;28;20024;-84
2021/01/16 03:06:14;;;;;;;8.25;4.40;;;;;;;-3.75;74.07;101819.31;5077942;28;20480;-84
2021/01/16 03:08:39;;;;;;;9.13;4.88;;;;;;;-3.78;74.13;101816.59;5075080;28;20075;-84
2021/01/16 03:11:07;;;;;;;8.80;4.80;;;;;;;-3.79;74.01;101814.84;5076546;28;20548;-84
2021/01/16 03:13:33;;;;;;;9.15;4.93;;;;;;;-3.80;74.57;101811.44;5076885;28;20024;-84
2021/01/16 03:16:06;;;;;;;7.70;4.18;;;;;;;-3.77;74.33;101811.63;5078759;28;20539;-84
2021/01/16 03:18:32;;;;;;;9.32;4.95;;;;;;;-3.77;74.72;101813.28;5076418;28;20081;-84
2021/01/16 03:21:02;;;;;;;9.77;4.95;;;;;;;-3.79;74.82;101802.16;5078315;28;20111;-84
2021/01/16 03:23:32;;;;;;;10.23;4.63;;;;;;;-3.77;75.22;101800.59;5075910;28;20031;-84
2021/01/16 03:25:57;;;;;;;11.05;5.00;;;;;;;-3.79;75.10;101803.03;5076087;28;20055;-84
2021/01/16 03:28:22;;;;;;;9.18;4.55;;;;;;;-3.79;74.26;101792.03;5076708;28;20056;-84
2021/01/16 03:30:47;;;;;;;10.05;5.10;;;;;;;-3.78;73.98;101793.78;5076240;28;20040;-85
2021/01/16 03:33:12;;;;;;;10.32;5.22;;;;;;;-3.80;73.98;101797.88;5078984;28;20586;-84
2021/01/16 03:35:38;;;;;;;10.50;5.30;;;;;;;-3.81;74.62;101802.09;5076063;28;20024;-84
2021/01/16 03:38:03;;;;;;;8.38;4.63;;;;;;;-3.75;74.26;101799.03;5075031;28;20029;-85
2021/01/16 03:40:28;;;;;;;9.05;4.55;;;;;;;-3.74;73.90;101796.59;5075030;28;20464;-86
2021/01/16 03:42:54;;;;;;;9.57;4.95;;;;;;;-3.80;74.13;101791.16;5075576;28;20017;-85
2021/01/16 03:45:21;;;;;;;9.10;4.90;;;;;;;-3.79;74.29;101792.03;5075709;28;20439;-85
2021/01/16 03:47:46;;;;;;;9.68;5.10;;;;;;;-3.79;74.23;101786.94;5077032;28;20082;-85
2021/01/16 03:50:12;;;;;;;8.35;4.85;;;;;;;-3.78;74.49;101793.78;5077264;28;20028;-85
2021/01/16 03:52:40;;;;;;;9.93;4.85;;;;;;;-3.76;74.37;101793.06;5075569;28;20561;-85
2021/01/16 03:55:07;;;;;;;9.18;4.57;;;;;;;-3.78;74.38;101793.78;5076099;28;20069;-85
2021/01/16 03:57:32;;;;;;;8.25;4.47;;;;;;;-3.77;74.42;101793.88;5075579;28;20489;-85
2021/01/16 03:59:58;;;;;;;11.32;4.68;;;;;;;-3.76;74.67;101788.00;5075242;28;20109;-85
2021/01/16 04:02:23;;;;;;;10.32;5.32;;;;;;;-3.76;75.10;101787.13;5076533;28;20047;-85
2021/01/16 04:04:49;;;;;;;8.13;4.70;;;;;;;-3.75;74.76;101789.78;5076491;28;20028;-85
2021/01/16 04:07:16;;;;;;;8.48;4.43;;;;;;;-3.75;74.49;101793.97;5074872;28;20115;-85
2021/01/16 04:09:42;;;;;;;10.52;4.72;;;;;;;-3.77;74.07;101787.94;5074137;28;20438;-85
2021/01/16 04:12:08;;;;;;;9.18;4.93;;;;;;;-3.80;73.98;101783.56;5075659;28;20548;-85
2021/01/16 04:14:33;;;;;;;11.60;5.13;;;;;;;-3.77;74.72;101787.94;5076167;28;20028;-85
2021/01/16 04:16:58;;;;;;;9.60;5.15;;;;;;;-3.77;75.38;101787.94;5078769;28;20484;-85
2021/01/16 04:19:24;;;;;;;9.52;4.78;;;;;;;-3.73;74.68;101787.31;5077563;28;20031;-85
2021/01/16 04:21:49;;;;;;;9.77;5.07;;;;;;;-3.73;74.47;101783.13;5075159;28;20027;-85
2021/01/16 04:24:15;;;;;;;9.13;4.65;;;;;;;-3.74;74.21;101783.03;5076780;28;20030;-85
2021/01/16 04:26:40;;;;;;;8.55;4.78;;;;;;;-3.77;74.25;101781.19;5075010;28;20020;-85
2021/01/16 04:29:05;;;;;;;8.40;4.57;;;;;;;-3.73;74.86;101777.19;5077264;28;20025;-85
2021/01/16 04:31:31;;;;;;;9.30;4.70;;;;;;;-3.74;74.54;101777.97;5076282;28;20047;-85
2021/01/16 04:33:56;;;;;;;9.05;4.88;;;;;;;-3.75;75.18;101779.63;5077088;28;20020;-84
2021/01/16 04:36:21;;;;;;;9.30;4.72;;;;;;;-3.75;74.15;101779.63;5076157;28;20079;-85
2021/01/16 04:38:47;;;;;;;9.15;4.85;;;;;;;-3.73;74.17;101782.25;5073308;28;20103;-85
2021/01/16 04:41:13;;;;;;;8.90;4.82;;;;;;;-3.74;74.57;101780.50;5074133;28;20043;-85
2021/01/16 04:43:40;;;;;;;9.20;4.63;;;;;;;-3.77;74.42;101768.53;5074118;28;20547;-85
2021/01/16 04:46:07;;;;;;;8.48;4.32;;;;;;;-3.76;74.85;101764.31;5073364;28;20024;-85
2021/01/16 04:48:34;;;;;;;8.73;4.25;;;;;;;-3.75;74.89;101763.56;5073801;28;20025;-85
2021/01/16 04:51:01;;;;;;;10.23;4.82;;;;;;;-3.75;74.47;101766.97;5074044;28;20024;-85
2021/01/16 04:53:35;;;;;;;8.50;4.60;;;;;;;-3.77;73.93;101763.44;5074385;28;20029;-85
2021/01/16 04:56:01;;;;;;;9.45;4.78;;;;;;;-3.75;74.96;101763.56;5074325;28;20028;-85
2021/01/16 04:58:27;;;;;;;11.30;4.80;;;;;;;-3.75;75.06;101764.44;5074223;28;20512;-85
2021/01/16 05:00:55;;;;;;;9.02;4.60;;;;;;;-3.73;74.84;101759.44;5074328;28;20058;-85
2021/01/16 05:03:23;;;;;;;8.57;4.43;;;;;;;-3.74;75.06;101761.09;5075048;28;20025;-85
2021/01/16 05:05:50;;;;;;;9.55;5.32;;;;;;;-3.71;75.11;101757.88;5075524;28;20066;-85
2021/01/16 05:08:15;;;;;;;9.82;4.60;;;;;;;-3.72;75.12;101763.75;5074137;28;20035;-85
2021/01/16 05:10:42;;;;;;;10.13;4.70;;;;;;;-3.73;74.31;101762.84;5075207;28;20092;-85
2021/01/16 05:13:17;;;;;;;8.32;4.53;;;;;;;-3.71;74.06;101755.34;5074749;28;20020;-85
2021/01/16 05:15:46;;;;;;;8.65;4.72;;;;;;;-3.72;74.75;101754.47;5073510;28;20020;-85
2021/01/16 05:18:12;;;;;;;9.27;4.47;;;;;;;-3.69;75.04;101758.84;5075329;28;20067;-84
2021/01/16 05:20:40;;;;;;;8.88;5.15;;;;;;;-3.69;74.37;101756.31;5075390;28;20028;-85
2021/01/16 05:23:17;;;;;;;9.30;4.78;;;;;;;-3.73;74.21;101746.75;5074072;28;20070;-85
2021/01/16 05:25:53;;;;;;;8.73;4.45;;;;;;;-3.68;74.70;101750.44;5074232;28;20370;-84
2021/01/16 05:28:24;;;;;;;8.57;4.75;;;;;;;-3.72;75.29;101743.47;5074302;28;20059;-84
2021/01/16 05:30:55;;;;;;;8.95;4.65;;;;;;;-3.72;74.92;101743.47;5074981;28;20576;-84
2021/01/16 05:33:24;;;;;;;9.30;4.47;;;;;;;-3.72;74.56;101738.41;5080376;28;20108;-84
2021/01/16 05:35:51;;;;;;;9.50;4.63;;;;;;;-3.70;74.25;101731.72;5078068;28;20017;-84
2021/01/16 05:38:16;;;;;;;9.32;4.80;;;;;;;-3.72;75.16;101726.59;5078030;28;20028;-85
2021/01/16 05:40:43;;;;;;;8.20;4.28;;;;;;;-3.72;75.44;101725.72;5077657;28;20020;-85
2021/01/16 05:43:09;;;;;;;10.38;5.13;;;;;;;-3.75;75.18;101731.47;5079367;28;20031;-85
2021/01/16 05:45:36;;;;;;;8.98;4.63;;;;;;;-3.75;74.60;101721.34;5077940;28;20032;-85
2021/01/16 05:48:05;;;;;;;8.18;4.38;;;;;;;-3.73;74.71;101721.41;5077972;28;20078;-85
2021/01/16 05:50:33;;;;;;;10.63;4.78;;;;;;;-3.73;75.52;101717.22;5079490;28;20157;-85
2021/01/16 05:52:59;;;;;;;8.27;4.43;;;;;;;-3.74;75.86;101714.59;5080142;28;20021;-85
2021/01/16 05:55:24;;;;;;;8.65;4.15;;;;;;;-3.73;74.93;101707.06;5079047;28;20035;-84
2021/01/16 05:58:02;;;;;;;11.15;4.70;;;;;;;-3.73;75.47;101703.66;5078225;28;20028;-85
2021/01/16 06:00:36;;;;;;;8.38;4.72;;;;;;;-3.76;75.78;101703.50;5079399;28;20031;-84
2021/01/16 06:03:03;;;;;;;8.07;4.50;;;;;;;-3.70;75.87;101701.31;5077998;28;20486;-84
2021/01/16 06:05:29;;;;;;;8.55;4.80;;;;;;;-3.73;75.39;101696.94;5077937;28;20028;-84
2021/01/16 06:07:55;;;;;;;10.02;4.80;;;;;;;-3.74;76.00;101694.31;5077066;28;20116;-84
2021/01/16 06:10:22;;;;;;;9.45;4.72;;;;;;;-3.71;74.64;101694.50;5076524;28;20456;-85
2021/01/16 06:12:52;;;;;;;8.68;4.47;;;;;;;-3.71;74.64;101697.03;5077632;28;20025;-85
2021/01/16 06:15:19;;;;;;;7.78;4.10;;;;;;;-3.70;74.40;101689.50;5077840;28;20112;-85
2021/01/16 06:17:50;;;;;;;7.70;3.78;;;;;;;-3.72;74.10;101698.69;5076796;28;20090;-85
2021/01/16 06:20:19;;;;;;;8.63;4.57;;;;;;;-3.69;74.48;101690.41;5077807;28;20392;-85
2021/01/16 06:22:49;;;;;;;8.07;4.03;;;;;;;-3.69;74.01;101690.41;5076818;28;20021;-85
2021/01/16 06:25:23;;;;;;;8.40;4.38;;;;;;;-3.70;75.67;101688.63;5078131;28;20044;-85
2021/01/16 06:27:49;;;;;;;8.57;4.10;;;;;;;-3.72;74.44;101687.69;5082491;28;20020;-85
2021/01/16 06:30:21;;;;;;;8.98;4.50;;;;;;;-3.73;74.80;101681.72;5096334;28;20048;-85
2021/01/16 06:32:51;;;;;;;8.02;4.28;;;;;;;-3.74;74.78;101685.06;5095584;28;20021;-85
2021/01/16 06:35:19;;;;;;;8.05;4.15;;;;;;;-3.74;73.90;101679.13;5091485;28;20052;-85
2021/01/16 06:37:47;;;;;;;7.50;3.63;;;;;;;-3.75;74.85;101679.91;5075176;28;20094;-85
2021/01/16 06:40:21;;;;;;;10.27;5.50;;;;;;;-3.77;75.52;101684.00;5075736;28;20028;-85
2021/01/16 06:42:50;;;;;;;10.52;5.88;;;;;;;-3.81;75.39;101677.88;5076036;28;20020;-85
2021/01/16 06:45:15;;;;;;;14.35;7.90;;;;;;;-3.88;77.20;101674.91;5076097;28;20034;-85
2021/01/16 06:47:41;;;;;;;10.27;5.38;;;;;;;-3.80;75.44;101671.16;5075558;28;20043;-85
2021/01/16 06:50:08;;;;;;;8.75;4.05;;;;;;;-3.81;74.97;101664.34;5076752;28;20035;-85
2021/01/16 06:52:36;;;;;;;9.60;5.10;;;;;;;-3.85;75.58;101670.88;5076369;28;20024;-85
2021/01/16 06:55:03;;;;;;;8.27;4.40;;;;;;;-3.85;75.38;101659.88;5075822;28;20028;-85
2021/01/16 06:57:31;;;;;;;8.00;4.32;;;;;;;-3.89;75.92;101665.56;5076220;28;20055;-85
2021/01/16 06:59:59;;;;;;;7.55;4.22;;;;;;;-3.97;76.79;101666.00;5075766;28;20017;-85
2021/01/16 07:02:31;;;;;;;8.55;4.55;;;;;;;-3.97;77.08;101660.06;5076419;28;20029;-85
2021/01/16 07:04:59;;;;;;;8.95;4.28;;;;;;;-4.03;76.61;101659.72;5076579;28;20029;-85
2021/01/16 07:07:33;;;;;;;8.25;4.60;;;;;;;-4.06;76.83;101662.94;5075872;28;20028;-85
2021/01/16 07:10:08;;;;;;;7.90;4.22;;;;;;;-4.15;77.12;101662.38;5076925;28;20063;-85
2021/01/16 07:12:34;;;;;;;9.20;4.68;;;;;;;-4.17;76.87;101662.28;5076981;28;20021;-85
2021/01/16 07:14:59;;;;;;;8.70;4.25;;;;;;;-4.13;76.59;101658.25;5075447;28;20069;-85
2021/01/16 07:17:27;;;;;;;9.93;4.10;;;;;;;-4.19;76.84;101658.81;5075521;28;20092;-85
2021/01/16 07:19:57;;;;;;;9.63;4.88;;;;;;;-4.28;76.19;101659.88;5075187;28;20020;-85
2021/01/16 07:22:30;;;;;;;8.63;4.35;;;;;;;-4.31;77.08;101659.72;5075046;28;20033;-85
2021/01/16 07:24:56;;;;;;;7.32;4.15;;;;;;;-4.37;76.86;101656.81;5075301;28;20020;-85
2021/01/16 07:27:24;;;;;;;8.63;4.20;;;;;;;-4.49;77.47;101651.91;5075308;28;20052;-85
2021/01/16 07:29:50;;;;;;;7.72;3.65;;;;;;;-4.54;77.45;101650.75;5074979;28;20066;-85
2021/01/16 07:32:16;;;;;;;8.90;3.97;;;;;;;-4.52;76.34;101651.72;5075504;28;20104;-85
2021/01/16 07:34:48;;;;;;;8.93;4.35;;;;;;;-4.62;77.50;101642.69;5075242;28;20503;-85
2021/01/16 07:37:14;;;;;;;6.95;3.80;;;;;;;-4.66;77.02;101646.69;5074199;28;20021;-85
2021/01/16 07:39:42;;;;;;;7.90;4.10;;;;;;;-4.66;77.67;101645.81;5074415;28;20035;-85
2021/01/16 07:42:11;;;;;;;8.60;3.85;;;;;;;-4.67;78.08;101644.09;5074671;28;20024;-85
2021/01/16 07:44:41;;;;;;;6.97;3.40;;;;;;;-4.59;76.75;101636.94;5074008;28;20020;-84
2021/01/16 07:47:17;;;;;;;10.38;4.20;;;;;;;-4.67;77.86;101633.97;5074165;28;20123;-84
2021/01/16 07:49:53;;;;;;;7.38;3.78;;;;;;;-4.68;77.30;101630.56;5074283;28;20468;-84
2021/01/16 07:52:22;;;;;;;6.93;3.38;;;;;;;-4.52;76.27;101634.00;5075617;28;20032;-84
2021/01/16 07:55:04;;;;;;;7.32;3.60;;;;;;;-4.41;75.21;101630.44;5073897;28;20165;-84
2021/01/16 07:57:31;;;;;;;6.95;3.15;;;;;;;-4.40;75.82;101627.16;5075235;28;20025;-84
2021/01/16 08:00:03;;;;;;;7.53;3.78;;;;;;;-4.32;75.04;101630.13;5074091;28;20055;-84
2021/01/16 08:02:32;;;;;;;7.00;3.30;;;;;;;-4.21;75.19;101626.56;5074153;28;20031;-84
2021/01/16 08:05:11;;;;;;;8.32;4.22;;;;;;;-4.12;75.72;101623.69;5074102;28;20031;-84
2021/01/16 08:08:09;;;;;;;9.65;4.65;;;;;;;-3.97;74.53;101625.47;5074732;28;20032;-85
2021/01/16 08:10:36;;;;;;;10.32;4.40;;;;;;;-3.95;73.96;101625.53;5073106;28;20078;-85
2021/01/16 08:13:08;;;;;;;10.98;5.13;;;;;;;-4.03;74.31;101625.09;5073921;28;20025;-84
2021/01/16 08:15:39;;;;;;;10.52;4.82;;;;;;;-4.10;74.97;101612.84;5076358;28;20031;-85
2021/01/16 08:18:04;;;;;;;7.35;3.75;;;;;;;-4.13;74.55;101616.88;5075873;28;20028;-84
2021/01/16 08:20:38;;;;;;;8.77;4.07;;;;;;;-4.13;74.45;101607.59;5073340;28;20027;-84
2021/01/16 08:23:04;;;;;;;7.93;4.15;;;;;;;-4.17;74.86;101610.75;5073626;28;20036;-85
2021/01/16 08:25:31;;;;;;;7.78;3.90;;;;;;;-4.22;75.76;101620.63;5074599;28;20024;-85
2021/01/16 08:27:58;;;;;;;10.73;5.07;;;;;;;-4.22;75.78;101619.72;5074031;28;20391;-85
2021/01/16 08:30:33;;;;;;;8.48;4.40;;;;;;;-4.17;75.15;101620.88;5073071;28;20021;-85
2021/01/16 08:33:06;;;;;;;8.45;4.13;;;;;;;-4.14;74.73;101618.53;5077731;28;20161;-84
2021/01/16 08:35:37;;;;;;;6.65;3.10;;;;;;;-4.11;74.44;101626.31;5075097;28;20105;-84
2021/01/16 08:38:18;;;;;;;6.72;3.42;;;;;;;-4.04;74.58;101625.88;5073032;28;20028;-85
2021/01/16 08:41:02;;;;;;;8.55;4.53;;;;;;;-3.92;75.20;101632.44;5072556;28;20476;-86
2021/01/16 08:43:32;;;;;;;7.70;3.53;;;;;;;-3.70;73.63;101625.25;5074771;28;20029;-84
2021/01/16 08:46:12;;;;;;;7.05;3.50;;;;;;;-3.34;72.16;101620.50;5073811;28;20053;-84
2021/01/16 08:48:39;;;;;;;8.07;3.25;;;;;;;-3.18;69.72;101623.09;5073821;28;20036;-85
2021/01/16 08:51:31;;;;;;;8.20;3.67;;;;;;;-3.00;68.98;101607.97;5074196;28;20069;-86
2021/01/16 08:54:22;;;;;;;7.32;3.05;;;;;;;-3.02;68.99;101615.53;5075890;28;20050;-84
2021/01/16 08:57:01;;;;;;;7.45;3.58;;;;;;;-2.93;69.59;101614.25;5078598;28;20040;-83
2021/01/16 08:59:34;;;;;;;7.57;3.65;;;;;;;-2.93;69.63;101609.19;5077893;28;20020;-83
2021/01/16 09:02:07;;;;;;;8.45;3.28;;;;;;;-2.92;69.67;101608.41;5076959;28;20498;-83
2021/01/16 09:04:37;;;;;;;7.40;3.40;;;;;;;-2.85;69.63;101613.00;5077796;28;20498;-83
2021/01/16 09:07:13;;;;;;;7.85;4.07;;;;;;;-2.80;68.89;101606.53;5078010;28;20021;-83
2021/01/16 09:09:39;;;;;;;9.02;4.32;;;;;;;-2.73;69.19;101608.56;5078620;28;20028;-82
2021/01/16 09:12:12;;;;;;;8.25;4.20;;;;;;;-2.48;69.58;101597.16;5075958;28;20086;-80
2021/01/16 09:14:40;;;;;;;7.30;3.70;;;;;;;-2.43;69.02;101598.22;5074145;28;20032;-80
2021/01/16 09:17:23;;;;;;;8.32;4.15;;;;;;;-2.30;67.97;101587.91;5075099;28;20534;-80
2021/01/16 09:19:57;;;;;;;8.20;3.97;;;;;;;-2.40;67.87;101588.22;5073658;28;20370;-80
2021/01/16 09:22:24;;;;;;;7.90;4.10;;;;;;;-2.40;68.37;101584.06;5078724;28;20028;-82
2021/01/16 09:24:51;;;;;;;8.10;3.88;;;;;;;-2.24;68.45;101593.31;5084513;28;20020;-82
2021/01/16 09:27:24;;;;;;;8.93;4.70;;;;;;;-2.16;69.35;101591.13;5091502;28;20072;-82
2021/01/16 09:29:50;;;;;;;8.17;4.43;;;;;;;-2.16;68.08;101589.47;5078229;28;20024;-82
2021/01/16 09:32:35;;;;;;;9.05;4.70;;;;;;;-2.02;69.14;101591.84;5078848;28;20430;-82
2021/01/16 09:35:00;;;;;;;;;;;;;;;-1.91;67.31;101583.03;5078828;28;20020;-81
2021/01/16 09:37:27;;;;;;;8.48;4.00;;;;;;;-2.06;66.54;101592.47;5079950;28;19908;-82
2021/01/16 09:40:00;;;;;;;8.52;3.90;;;;;;;-2.10;66.70;101591.44;5080123;28;20043;-81
2021/01/16 09:42:25;;;;;;;8.63;4.25;;;;;;;-2.13;66.37;101584.53;5079032;28;20032;-83
2021/01/16 09:44:55;;;;;;;8.25;4.30;;;;;;;-2.15;66.71;101590.38;5078982;28;20024;-83
2021/01/16 09:47:26;;;;;;;13.30;4.13;;;;;;;-2.19;66.55;101589.31;5076559;28;20082;-83
2021/01/16 09:49:52;;;;;;;8.20;3.83;;;;;;;-2.13;65.90;101584.53;5078387;28;20065;-83
2021/01/16 09:52:20;;;;;;;9.60;4.30;;;;;;;-2.06;66.66;101585.75;5077669;28;20040;-83
2021/01/16 09:54:48;;;;;;;8.77;4.43;;;;;;;-1.97;66.29;101588.72;5075654;28;20017;-84
2021/01/16 09:57:32;;;;;;;7.03;3.58;;;;;;;-1.98;67.37;101586.09;5076246;28;20472;-83
2021/01/16 10:00:31;;;;;;;7.95;3.83;;;;;;;-2.05;65.69;101584.06;5079837;28;20024;-84
2021/01/16 10:03:02;;;;;;;6.72;3.40;;;;;;;-2.10;66.25;101589.78;5079219;28;20043;-83
2021/01/16 10:05:35;;;;;;;7.45;4.00;;;;;;;-1.99;66.53;101586.91;5077868;28;20434;-84
2021/01/16 10:08:01;;;;;;;9.20;3.92;;;;;;;-2.04;66.32;101584.13;5075598;28;20138;-84
2021/01/16 10:10:27;;;;;;;8.40;4.63;;;;;;;-1.86;67.71;101579.06;5078295;28;20028;-83
2021/01/16 10:13:00;;;;;;;8.73;4.35;;;;;;;-2.04;65.93;101578.16;5080130;28;20103;-83
2021/01/16 10:15:30;;;;;;;8.27;4.10;;;;;;;-1.88;66.08;101580.66;5078873;28;20020;-82
2021/01/16 10:17:57;;;;;;;8.43;4.30;;;;;;;-2.00;66.52;101580.06;5078956;28;20029;-82
2021/01/16 10:20:32;;;;;;;7.82;3.67;;;;;;;-1.92;66.27;101576.22;5082681;28;20025;-82
2021/01/16 10:23:00;;;;;;;7.07;3.83;;;;;;;-1.87;65.52;101570.56;5083253;28;20025;-82
2021/01/16 10:25:39;;;;;;;7.07;3.47;;;;;;;-1.96;65.51;101556.56;5082884;28;20067;-83
2021/01/16 10:28:05;;;;;;;7.88;4.35;;;;;;;-1.67;65.65;101546.09;5081708;28;20504;-83
2021/01/16 10:30:31;;;;;;;8.30;4.25;;;;;;;-1.63;65.68;101548.00;5082647;28;20078;-83
2021/01/16 10:32:57;;;;;;;8.73;3.55;;;;;;;-1.88;65.11;101540.88;5082150;28;20024;-82
2021/01/16 10:35:29;;;;;;;9.00;4.47;;;;;;;-1.88;66.09;101530.72;5080688;28;20063;-82
2021/01/16 10:38:00;;;;;;;11.35;5.10;;;;;;;-1.72;64.54;101524.66;5081154;28;20024;-83
2021/01/16 10:40:26;;;;;;;8.63;4.10;;;;;;;-1.79;64.48;101524.28;5081335;28;20016;-82
2021/01/16 10:42:57;;;;;;;9.27;4.72;;;;;;;-1.50;64.24;101523.13;5082485;28;20495;-82
2021/01/16 10:45:28;;;;;;;7.28;3.38;;;;;;;-1.56;63.53;101528.81;5081334;28;20025;-83
2021/01/16 10:47:55;;;;;;;8.57;3.72;;;;;;;-1.68;64.43;101518.91;5081655;28;20074;-83
2021/01/16 10:50:28;;;;;;;6.88;3.45;;;;;;;-1.84;64.33;101520.69;5080656;28;20020;-82
2021/01/16 10:53:02;;;;;;;9.77;3.95;;;;;;;-1.72;64.99;101514.50;5080410;28;20021;-83
2021/01/16 10:55:55;;;;;;;8.02;4.10;;;;;;;-1.58;65.32;101519.34;5081660;28;20420;-83
2021/01/16 10:58:23;;;;;;;8.32;4.15;;;;;;;-1.40;64.18;101507.47;5080954;28;20024;-83
2021/01/16 11:00:59;;;;;;;10.48;4.38;;;;;;;-1.34;65.26;101504.34;5081176;28;20485;-83
2021/01/16 11:03:27;;;;;;;8.63;4.38;;;;;;;-1.39;64.25;101488.84;5081699;28;20103;-83
2021/01/16 11:05:54;;;;;;;7.03;3.90;;;;;;;-1.22;64.01;101490.50;5080653;28;20032;-83
2021/01/16 11:08:28;;;;;;;8.93;4.13;;;;;;;-1.12;62.95;101496.00;5080044;28;20020;-83
2021/01/16 11:10:54;;;;;;;7.80;4.00;;;;;;;-0.81;63.36;101481.22;5081647;28;20028;-83
2021/01/16 11:13:22;;;;;;;10.77;4.97;;;;;;;-0.98;61.75;101484.75;5079921;28;20090;-83
2021/01/16 11:15:52;;;;;;;8.30;4.28;;;;;;;-1.16;62.63;101475.50;5079269;28;20066;-83
2021/01/16 11:18:32;;;;;;;8.00;4.00;;;;;;;-1.05;62.66;101477.63;5079142;28;20365;-83
2021/01/16 11:21:00;;;;;;;7.32;4.05;;;;;;;-1.18;62.49;101477.09;5079204;28;20472;-83
2021/01/16 11:23:30;;;;;;;7.80;4.03;;;;;;;-1.14;62.54;101472.13;5080284;28;20435;-82
2021/01/16 11:25:57;;;;;;;9.60;4.43;;;;;;;-0.93;61.96;101470.50;5080744;28;20055;-82
2021/01/16 11:28:27;;;;;;;9.23;4.22;;;;;;;-0.03;57.92;101460.66;5080866;28;20028;-82
2021/01/16 11:31:06;;;;;;;7.88;3.45;;;;;;;0.75;55.90;101467.81;5080457;28;20389;-81
2021/01/16 11:33:33;;;;;;;7.57;3.92;;;;;;;2.43;51.99;101457.13;5080553;28;20047;-82